createdAt,value
2022-10-26T00:01:10.310Z,3.03
2022-10-26T00:03:40.804Z,3.17
2022-10-26T00:06:11.773Z,4.00
2022-10-26T00:08:40.332Z,4.35
2022-10-26T00:11:10.392Z,4.40
2022-10-26T00:13:40.682Z,3.50
2022-10-26T00:16:14.287Z,3.67
2022-10-26T00:18:43.078Z,4.88
2022-10-26T00:21:12.385Z,2.72
2022-10-26T00:23:40.717Z,5.97
2022-10-26T00:26:10.864Z,3.67
2022-10-26T00:28:39.282Z,3.33
2022-10-26T00:31:09.429Z,3.20
2022-10-26T00:33:37.550Z,3.13
2022-10-26T00:36:06.181Z,3.20
2022-10-26T00:38:34.274Z,3.10
2022-10-26T00:41:02.463Z,3.42
2022-10-26T00:43:50.984Z,3.13
2022-10-26T00:46:23.318Z,2.17
2022-10-26T00:48:53.546Z,2.25
2022-10-26T00:51:26.775Z,3.03
2022-10-26T00:53:55.751Z,2.67
2022-10-26T00:56:24.522Z,2.63
2022-10-26T00:58:54.273Z,4.03
2022-10-26T01:01:22.665Z,2.47
2022-10-26T01:03:51.231Z,2.13
2022-10-26T01:06:20.213Z,1.88
2022-10-26T01:08:49.060Z,2.45
2022-10-26T01:11:17.868Z,3.13
2022-10-26T01:13:48.186Z,1.80
2022-10-26T01:16:40.826Z,2.70
2022-10-26T01:19:45.718Z,1.98
2022-10-26T01:22:18.699Z,2.35
2022-10-26T01:25:09.897Z,1.70
2022-10-26T01:27:40.142Z,1.48
2022-10-26T01:30:33.447Z,1.50
2022-10-26T01:33:32.462Z,1.52
2022-10-26T01:36:14.321Z,0.88
2022-10-26T01:38:49.499Z,1.00
2022-10-26T01:41:23.271Z,0.70
2022-10-26T01:43:56.804Z,1.55
2022-10-26T01:46:28.568Z,0.80
2022-10-26T01:51:29.764Z,1.20
2022-10-26T01:53:59.998Z,0.80
2022-10-26T01:56:30.924Z,0.80
2022-10-26T01:59:19.908Z,0.73
2022-10-26T02:02:20.306Z,1.23
2022-10-26T02:05:02.599Z,0.70
2022-10-26T02:07:38.637Z,1.33
2022-10-26T02:10:16.497Z,1.25
2022-10-26T02:12:54.320Z,1.77
2022-10-26T02:15:26.371Z,1.70
2022-10-26T02:18:00.583Z,1.67
2022-10-26T02:20:35.659Z,1.90
2022-10-26T02:23:07.683Z,1.83
2022-10-26T02:25:40.809Z,1.80
2022-10-26T02:28:11.760Z,1.15
2022-10-26T02:30:41.776Z,1.50
2022-10-26T02:33:13.875Z,2.05
2022-10-26T02:35:48.377Z,2.22
2022-10-26T02:38:20.281Z,1.33
2022-10-26T02:40:50.321Z,2.28
2022-10-26T02:43:23.210Z,2.22
2022-10-26T02:45:56.549Z,3.78
2022-10-26T02:48:25.539Z,1.58
2022-10-26T02:51:02.083Z,2.10
2022-10-26T02:53:35.041Z,1.40
2022-10-26T02:56:08.638Z,1.90
2022-10-26T02:58:42.245Z,1.42
2022-10-26T03:01:10.631Z,2.13
2022-10-26T03:03:38.872Z,2.13
2022-10-26T03:06:08.704Z,1.50
2022-10-26T03:08:36.829Z,2.30
2022-10-26T03:11:04.980Z,2.28
2022-10-26T03:13:33.232Z,2.47
2022-10-26T03:16:01.359Z,2.08
2022-10-26T03:18:29.566Z,2.17
2022-10-26T03:20:57.620Z,1.98
2022-10-26T03:23:27.184Z,1.80
2022-10-26T03:25:58.132Z,2.13
2022-10-26T03:28:26.423Z,2.22
2022-10-26T03:30:54.533Z,1.42
2022-10-26T03:33:25.609Z,1.20
2022-10-26T03:35:57.204Z,1.20
2022-10-26T03:38:26.787Z,0.93
2022-10-26T03:40:55.220Z,0.45
2022-10-26T03:43:23.413Z,0.60
2022-10-26T03:45:51.532Z,0.60
2022-10-26T03:48:19.740Z,0.52
2022-10-26T03:50:47.853Z,0.98
2022-10-26T03:53:15.960Z,1.30
2022-10-26T03:55:46.907Z,1.20
2022-10-26T03:58:15.374Z,0.98
2022-10-26T04:00:43.599Z,1.17
2022-10-26T04:03:11.715Z,1.20
2022-10-26T04:05:40.196Z,0.77
2022-10-26T04:08:08.284Z,1.23
2022-10-26T04:10:36.612Z,1.42
2022-10-26T04:13:06.136Z,1.98
2022-10-26T04:15:34.394Z,0.90
2022-10-26T04:18:03.907Z,1.05
2022-10-26T04:20:34.564Z,1.20
2022-10-26T04:23:04.757Z,0.80
2022-10-26T04:25:34.131Z,0.65
2022-10-26T04:28:02.724Z,1.00
2022-10-26T04:30:32.912Z,1.92
2022-10-26T04:33:01.405Z,0.50
2022-10-26T04:35:29.554Z,1.15
2022-10-26T04:38:00.973Z,0.50
2022-10-26T04:40:29.549Z,0.40
2022-10-26T04:42:57.774Z,0.40
2022-10-26T04:45:28.297Z,0.45
2022-10-26T04:48:05.905Z,0.30
2022-10-26T04:50:34.313Z,0.40
2022-10-26T04:53:02.824Z,0.20
2022-10-26T04:55:31.320Z,0.30
2022-10-26T04:58:01.296Z,0.40
2022-10-26T05:00:31.115Z,0.53
2022-10-26T05:03:05.489Z,0.47
2022-10-26T05:05:34.858Z,0.47
2022-10-26T05:08:03.023Z,0.30
2022-10-26T05:10:31.593Z,0.52
2022-10-26T05:13:02.133Z,0.60
2022-10-26T05:15:30.620Z,0.60
2022-10-26T05:18:00.380Z,0.40
2022-10-26T05:20:32.042Z,0.63
2022-10-26T05:23:01.909Z,0.65
2022-10-26T05:25:32.034Z,0.50
2022-10-26T05:28:00.637Z,0.70
2022-10-26T05:30:29.268Z,0.52
2022-10-26T05:32:57.889Z,0.55
2022-10-26T05:35:27.225Z,1.00
2022-10-26T05:37:56.733Z,1.30
2022-10-26T05:40:25.272Z,1.83
2022-10-26T05:42:53.848Z,2.08
2022-10-26T05:45:21.993Z,1.83
2022-10-26T05:47:50.286Z,1.50
2022-10-26T05:50:18.932Z,1.48
2022-10-26T05:52:48.781Z,1.52
2022-10-26T05:55:19.921Z,2.05
2022-10-26T05:57:48.821Z,1.63
2022-10-26T06:00:20.451Z,1.42
2022-10-26T06:03:11.191Z,1.98
2022-10-26T06:05:47.101Z,1.63
2022-10-26T06:08:15.686Z,1.90
2022-10-26T06:10:45.818Z,1.70
2022-10-26T06:13:14.579Z,1.52
2022-10-26T06:15:53.855Z,1.92
2022-10-26T06:18:35.336Z,2.22
2022-10-26T06:21:17.321Z,2.42
2022-10-26T06:23:55.139Z,1.42
2022-10-26T06:26:36.484Z,2.60
2022-10-26T06:29:19.423Z,1.55
2022-10-26T06:31:48.375Z,1.70
2022-10-26T06:34:24.242Z,2.17
2022-10-26T06:39:23.798Z,2.35
2022-10-26T06:41:53.669Z,2.10
2022-10-26T06:44:26.144Z,3.35
2022-10-26T06:47:04.017Z,2.13
2022-10-26T06:49:36.746Z,1.90
2022-10-26T06:52:13.319Z,2.20
2022-10-26T06:54:50.470Z,1.77
2022-10-26T06:57:21.663Z,3.25
2022-10-26T06:59:53.072Z,2.90
2022-10-26T07:04:50.020Z,2.50
2022-10-26T07:07:21.529Z,2.92
2022-10-26T07:12:19.355Z,3.17
2022-10-26T07:14:48.189Z,3.15
2022-10-26T07:17:17.221Z,3.22
2022-10-26T07:19:45.929Z,1.90
2022-10-26T07:22:14.034Z,1.60
2022-10-26T07:24:42.231Z,2.42
2022-10-26T07:27:10.458Z,1.52
2022-10-26T07:29:39.904Z,2.38
2022-10-26T07:32:08.153Z,2.75
2022-10-26T07:34:36.266Z,2.22
2022-10-26T07:37:04.532Z,1.92
2022-10-26T07:39:33.124Z,1.35
2022-10-26T07:42:01.196Z,2.53
2022-10-26T07:44:29.419Z,2.50
2022-10-26T07:46:58.987Z,2.20
2022-10-26T07:49:27.910Z,2.38
2022-10-26T07:51:56.524Z,2.97
2022-10-26T07:54:24.738Z,2.90
2022-10-26T07:56:53.024Z,2.55
2022-10-26T07:59:21.244Z,2.78
2022-10-26T08:01:49.496Z,2.22
2022-10-26T08:04:19.046Z,2.47
2022-10-26T08:06:47.288Z,2.78
2022-10-26T08:09:15.476Z,2.58
2022-10-26T08:11:43.616Z,2.88
2022-10-26T08:14:12.232Z,2.97
2022-10-26T08:16:41.176Z,2.25
2022-10-26T08:19:09.581Z,2.22
2022-10-26T08:21:40.693Z,1.90
2022-10-26T08:24:09.706Z,2.75
2022-10-26T08:26:37.953Z,2.38
2022-10-26T08:29:06.072Z,2.22
2022-10-26T08:31:34.204Z,3.17
2022-10-26T08:34:04.133Z,2.90
2022-10-26T08:36:32.486Z,2.50
2022-10-26T08:39:02.123Z,2.20
2022-10-26T08:41:37.875Z,2.72
2022-10-26T08:44:23.175Z,2.03
2022-10-26T08:46:55.562Z,1.83
2022-10-26T08:49:27.938Z,2.85
2022-10-26T08:52:00.414Z,3.25
2022-10-26T08:54:38.404Z,2.28
2022-10-26T08:57:16.322Z,1.65
2022-10-26T08:59:50.567Z,2.15
2022-10-26T09:02:19.480Z,2.03
2022-10-26T09:04:47.956Z,1.98
2022-10-26T09:07:28.308Z,1.88
2022-10-26T09:10:05.682Z,2.15
2022-10-26T09:12:46.084Z,1.85
2022-10-26T09:15:24.583Z,1.80
2022-10-26T09:17:59.832Z,1.90
2022-10-26T09:20:49.232Z,2.05
2022-10-26T09:23:31.109Z,2.72
2022-10-26T09:26:02.253Z,1.88
2022-10-26T09:28:35.860Z,1.80
2022-10-26T09:31:05.904Z,1.83
2022-10-26T09:33:40.504Z,2.10
2022-10-26T09:36:16.795Z,1.90
2022-10-26T09:38:48.767Z,1.55
2022-10-26T09:41:27.145Z,2.00
2022-10-26T09:44:07.092Z,2.42
2022-10-26T09:46:44.908Z,3.17
2022-10-26T09:49:17.355Z,1.40
2022-10-26T09:51:46.433Z,2.97
2022-10-26T09:54:17.397Z,2.50
2022-10-26T09:56:51.326Z,2.75
2022-10-26T09:59:23.181Z,1.92
2022-10-26T10:01:51.488Z,2.20
2022-10-26T10:04:22.801Z,2.40
2022-10-26T10:06:53.191Z,2.13
2022-10-26T10:09:25.452Z,1.92
2022-10-26T10:11:57.884Z,2.10
2022-10-26T10:14:29.166Z,1.98
2022-10-26T10:17:00.122Z,2.85
2022-10-26T10:19:30.485Z,2.08
2022-10-26T10:22:00.783Z,2.20
2022-10-26T10:24:31.504Z,2.58
2022-10-26T10:27:18.958Z,2.20
2022-10-26T10:29:49.990Z,2.28
2022-10-26T10:32:20.821Z,2.10
2022-10-26T10:34:49.360Z,3.08
2022-10-26T10:37:26.562Z,1.95
2022-10-26T10:39:59.450Z,2.05
2022-10-26T10:42:32.496Z,2.20
2022-10-26T10:45:01.808Z,2.72
2022-10-26T10:47:33.009Z,1.95
2022-10-26T10:50:03.815Z,2.30
2022-10-26T10:52:33.939Z,2.43
2022-10-26T10:55:17.351Z,1.67
2022-10-26T10:58:00.210Z,2.22
2022-10-26T11:00:35.959Z,2.60
2022-10-26T11:03:26.045Z,3.22
2022-10-26T11:06:05.071Z,1.65
2022-10-26T11:08:40.665Z,2.15
2022-10-26T11:11:13.768Z,2.88
2022-10-26T11:13:52.068Z,2.08
2022-10-26T11:16:24.937Z,2.78
2022-10-26T11:18:59.871Z,2.72
2022-10-26T11:21:30.556Z,2.10
2022-10-26T11:24:11.259Z,2.13
2022-10-26T11:26:46.329Z,2.77
2022-10-26T11:29:25.662Z,1.85
2022-10-26T11:31:58.710Z,2.72
2022-10-26T11:34:32.837Z,2.15
2022-10-26T11:37:12.555Z,1.83
2022-10-26T11:39:46.574Z,2.08
2022-10-26T11:42:27.751Z,1.85
2022-10-26T11:45:04.848Z,2.50
2022-10-26T11:47:41.916Z,2.05
2022-10-26T11:50:18.663Z,1.80
2022-10-26T11:52:51.299Z,1.92
2022-10-26T11:55:21.659Z,2.03
2022-10-26T11:57:52.321Z,2.30
2022-10-26T12:00:24.058Z,2.22
2022-10-26T12:02:56.890Z,2.60
2022-10-26T12:05:34.883Z,1.55
2022-10-26T12:08:07.844Z,1.77
2022-10-26T12:10:39.437Z,2.72
2022-10-26T12:13:25.632Z,2.42
2022-10-26T12:16:04.296Z,2.15
2022-10-26T12:18:57.236Z,1.75
2022-10-26T12:21:29.689Z,2.13
2022-10-26T12:24:00.111Z,2.20
2022-10-26T12:26:52.541Z,2.17
2022-10-26T12:29:32.219Z,2.50
2022-10-26T12:32:02.509Z,2.28
2022-10-26T12:35:05.329Z,1.95
2022-10-26T12:37:37.569Z,2.33
2022-10-26T12:40:41.979Z,2.08
2022-10-26T12:43:36.560Z,2.10
2022-10-26T12:46:41.541Z,2.00
2022-10-26T12:50:08.306Z,1.95
2022-10-26T12:52:47.361Z,2.72
2022-10-26T12:55:54.061Z,2.33
2022-10-26T12:58:39.091Z,2.90
2022-10-26T13:01:32.388Z,2.13
2022-10-26T13:04:13.716Z,1.80
2022-10-26T13:07:13.803Z,1.80
2022-10-26T13:09:46.808Z,1.60
2022-10-26T13:12:15.269Z,1.52
2022-10-26T13:14:57.349Z,2.05
2022-10-26T13:17:28.592Z,2.20
2022-10-26T13:19:58.279Z,1.77
2022-10-26T13:22:26.729Z,1.98
2022-10-26T13:25:01.798Z,1.48
2022-10-26T13:27:45.045Z,1.63
2022-10-26T13:30:43.126Z,1.65
2022-10-26T13:33:22.191Z,2.00
2022-10-26T13:35:54.915Z,2.88
2022-10-26T13:38:27.286Z,2.05
2022-10-26T13:41:06.999Z,2.10
2022-10-26T13:43:38.844Z,1.75
2022-10-26T13:46:07.468Z,2.03
2022-10-26T13:48:40.154Z,2.30
2022-10-26T13:51:20.890Z,2.53
2022-10-26T13:53:54.505Z,2.17
2022-10-26T13:56:33.363Z,2.15
2022-10-26T13:59:04.421Z,2.10
2022-10-26T14:01:33.792Z,2.38
2022-10-26T14:04:16.177Z,1.70
2022-10-26T14:06:50.073Z,2.58
2022-10-26T14:09:19.803Z,2.33
2022-10-26T14:11:52.326Z,2.13
2022-10-26T14:14:24.127Z,2.85
2022-10-26T14:16:53.813Z,2.58
2022-10-26T14:19:26.178Z,2.15
2022-10-26T14:21:55.013Z,2.58
2022-10-26T14:24:45.307Z,2.78
2022-10-26T14:27:18.539Z,1.20
2022-10-26T14:30:03.607Z,0.80
2022-10-26T14:32:36.854Z,0.90
2022-10-26T14:35:05.227Z,0.82
2022-10-26T14:37:39.773Z,1.23
2022-10-26T14:40:15.422Z,1.75
2022-10-26T14:42:50.673Z,0.95
2022-10-26T14:45:46.895Z,0.65
2022-10-26T14:48:22.708Z,0.90
2022-10-26T14:51:07.226Z,1.30
2022-10-26T14:53:39.238Z,1.45
2022-10-26T14:56:22.080Z,0.68
2022-10-26T14:58:52.384Z,1.30
2022-10-26T15:01:35.831Z,1.00
2022-10-26T15:04:06.779Z,1.67
2022-10-26T15:06:40.183Z,1.52
2022-10-26T15:09:28.611Z,1.77
2022-10-26T15:11:56.806Z,2.70
2022-10-26T15:14:26.730Z,2.30
2022-10-26T15:16:56.694Z,1.88
2022-10-26T15:19:25.943Z,1.48
2022-10-26T15:21:55.223Z,2.03
2022-10-26T15:24:37.509Z,1.83
2022-10-26T15:27:16.647Z,1.33
2022-10-26T15:29:48.092Z,2.13
2022-10-26T15:35:23.568Z,1.88
2022-10-26T15:37:52.912Z,2.72
2022-10-26T15:40:21.611Z,2.83
2022-10-26T15:42:52.189Z,2.63
2022-10-26T15:45:24.435Z,2.47
2022-10-26T15:47:54.155Z,2.45
2022-10-26T15:50:25.055Z,2.30
2022-10-26T15:53:00.943Z,1.90
2022-10-26T15:55:30.117Z,2.20
2022-10-26T15:57:58.146Z,2.17
2022-10-26T16:00:27.961Z,2.60
2022-10-26T16:02:56.142Z,2.53
2022-10-26T16:05:24.288Z,2.20
2022-10-26T16:07:52.941Z,2.30
2022-10-26T16:10:25.810Z,3.20
2022-10-26T16:12:54.052Z,1.73
2022-10-26T16:15:24.698Z,2.42
2022-10-26T16:17:54.538Z,2.87
2022-10-26T16:20:24.711Z,2.60
2022-10-26T16:22:54.059Z,2.78
2022-10-26T16:25:25.278Z,3.22
2022-10-26T16:27:54.576Z,2.47
2022-10-26T16:30:28.173Z,1.95
2022-10-26T16:32:59.693Z,2.65
2022-10-26T16:35:28.296Z,2.22
2022-10-26T16:37:56.665Z,2.25
2022-10-26T16:40:26.825Z,4.32
2022-10-26T16:42:55.018Z,3.65
2022-10-26T16:45:23.087Z,2.60
2022-10-26T16:47:51.448Z,2.55
2022-10-26T16:50:22.262Z,2.75
2022-10-26T16:52:50.311Z,2.58
2022-10-26T16:55:18.678Z,2.47
2022-10-26T16:57:46.871Z,1.70
2022-10-26T17:00:15.494Z,2.05
2022-10-26T17:02:43.692Z,1.95
2022-10-26T17:05:11.812Z,2.28
2022-10-26T17:07:41.421Z,2.65
2022-10-26T17:10:11.131Z,2.08
2022-10-26T17:12:39.543Z,2.40
2022-10-26T17:15:08.581Z,3.08
2022-10-26T17:17:36.747Z,2.28
2022-10-26T17:20:05.382Z,2.80
2022-10-26T17:22:33.689Z,2.90
2022-10-26T17:25:03.455Z,3.08
2022-10-26T17:27:31.733Z,3.78
2022-10-26T17:29:59.942Z,2.83
2022-10-26T17:32:28.078Z,2.50
2022-10-26T17:34:56.184Z,2.70
2022-10-26T17:37:24.848Z,2.33
2022-10-26T17:39:52.996Z,2.20
2022-10-26T17:42:22.533Z,2.40
2022-10-26T17:44:50.746Z,3.53
2022-10-26T17:47:18.940Z,2.22
2022-10-26T17:49:47.124Z,3.33
2022-10-26T17:52:15.320Z,2.53
2022-10-26T17:54:43.714Z,2.00
2022-10-26T17:57:12.261Z,3.85
2022-10-26T17:59:41.725Z,2.83
2022-10-26T18:02:10.243Z,2.38
2022-10-26T18:04:38.486Z,2.10
2022-10-26T18:07:07.048Z,2.33
2022-10-26T18:09:35.154Z,3.67
2022-10-26T18:12:03.357Z,2.22
2022-10-26T18:14:31.566Z,2.97
2022-10-26T18:17:01.232Z,2.95
2022-10-26T18:19:29.429Z,2.65
2022-10-26T18:21:57.455Z,2.83
2022-10-26T18:24:25.665Z,2.40
2022-10-26T18:26:53.756Z,2.78
2022-10-26T18:29:22.307Z,2.63
2022-10-26T18:31:50.510Z,2.63
2022-10-26T18:34:20.551Z,3.08
2022-10-26T18:36:49.028Z,3.40
2022-10-26T18:39:17.155Z,3.63
2022-10-26T18:41:45.760Z,2.25
2022-10-26T18:44:14.100Z,2.92
2022-10-26T18:46:45.527Z,2.25
2022-10-26T18:49:14.255Z,2.22
2022-10-26T18:51:43.822Z,3.42
2022-10-26T18:54:12.032Z,2.60
2022-10-26T18:56:40.416Z,2.92
2022-10-26T18:59:09.407Z,4.22
2022-10-26T19:01:42.271Z,2.65
2022-10-26T19:04:11.729Z,3.03
2022-10-26T19:06:42.387Z,3.38
2022-10-26T19:09:12.180Z,3.45
2022-10-26T19:11:42.256Z,3.67
2022-10-26T19:14:10.602Z,3.13
2022-10-26T19:16:47.708Z,4.10
2022-10-26T19:19:16.959Z,3.58
2022-10-26T19:21:45.827Z,2.72
2022-10-26T19:24:17.575Z,3.20
2022-10-26T19:26:45.887Z,2.60
2022-10-26T19:29:16.969Z,2.83
2022-10-26T19:31:46.138Z,2.60
2022-10-26T19:34:15.971Z,2.80
2022-10-26T19:36:46.377Z,2.53
2022-10-26T19:39:16.879Z,3.27
2022-10-26T19:41:45.904Z,3.15
2022-10-26T19:44:15.451Z,3.08
2022-10-26T19:46:44.709Z,2.60
2022-10-26T19:49:13.727Z,3.47
2022-10-26T19:51:42.001Z,2.97
2022-10-26T19:54:10.369Z,3.60
2022-10-26T19:56:39.842Z,2.58
2022-10-26T19:59:09.291Z,3.90
2022-10-26T20:01:39.114Z,2.72
2022-10-26T20:04:07.428Z,3.95
2022-10-26T20:06:35.644Z,3.88
2022-10-26T20:09:04.428Z,3.83
2022-10-26T20:11:35.169Z,2.92
2022-10-26T20:14:07.680Z,3.40
2022-10-26T20:16:35.960Z,4.22
2022-10-26T20:19:04.135Z,3.63
2022-10-26T20:21:33.707Z,3.45
2022-10-26T20:24:02.492Z,3.47
2022-10-26T20:26:32.683Z,4.22
2022-10-26T20:29:02.545Z,3.80
2022-10-26T20:31:32.413Z,3.75
2022-10-26T20:34:00.523Z,3.47
2022-10-26T20:36:28.734Z,3.53
2022-10-26T20:38:57.582Z,2.88
2022-10-26T20:41:26.110Z,5.47
2022-10-26T20:43:57.225Z,3.92
2022-10-26T20:46:28.749Z,3.65
2022-10-26T20:48:59.124Z,5.38
2022-10-26T20:51:47.634Z,4.43
2022-10-26T20:54:27.289Z,3.75
2022-10-26T20:56:58.249Z,3.78
2022-10-26T21:02:02.190Z,3.38
2022-10-26T21:04:31.774Z,2.95
2022-10-26T21:06:59.946Z,3.72
2022-10-26T21:09:29.773Z,3.00
2022-10-26T21:12:00.616Z,2.57
2022-10-26T21:14:29.184Z,4.60
2022-10-26T21:16:57.343Z,2.83
2022-10-26T21:19:25.430Z,2.83
2022-10-26T21:21:54.921Z,2.90
2022-10-26T21:24:23.180Z,3.03
2022-10-26T21:26:51.467Z,2.88
2022-10-26T21:29:19.917Z,2.60
2022-10-26T21:31:48.170Z,3.38
2022-10-26T21:34:16.242Z,2.75
2022-10-26T21:36:44.608Z,3.47
2022-10-26T21:39:14.512Z,2.15
2022-10-26T21:41:43.997Z,3.58
2022-10-26T21:44:24.606Z,3.08
2022-10-26T21:47:00.669Z,2.85
2022-10-26T21:49:28.786Z,4.72
2022-10-26T21:51:56.971Z,3.63
2022-10-26T21:54:26.577Z,2.25
2022-10-26T21:56:54.742Z,2.88
2022-10-26T21:59:22.985Z,2.53
2022-10-26T22:01:51.279Z,3.42
2022-10-26T22:04:19.443Z,3.30
2022-10-26T22:06:47.528Z,4.82
2022-10-26T22:09:15.619Z,3.13
2022-10-26T22:11:45.181Z,5.55
2022-10-26T22:14:15.640Z,3.85
2022-10-26T22:16:43.965Z,5.50
2022-10-26T22:19:12.149Z,3.78
2022-10-26T22:21:42.170Z,3.53
2022-10-26T22:24:11.307Z,3.80
2022-10-26T22:26:39.754Z,4.80
2022-10-26T22:29:10.528Z,3.80
2022-10-26T22:31:40.553Z,3.10
2022-10-26T22:34:14.328Z,3.10
2022-10-26T22:36:42.551Z,2.65
2022-10-26T22:39:10.800Z,5.07
2022-10-26T22:41:39.085Z,4.03
2022-10-26T22:44:07.265Z,4.68
2022-10-26T22:46:36.924Z,2.65
2022-10-26T22:49:05.359Z,3.70
2022-10-26T22:51:35.437Z,5.50
2022-10-26T22:54:05.077Z,4.70
2022-10-26T22:56:35.678Z,4.13
2022-10-26T22:59:04.079Z,4.13
2022-10-26T23:01:34.953Z,6.13
2022-10-26T23:04:04.646Z,3.92
2022-10-26T23:06:33.936Z,3.95
2022-10-26T23:09:02.162Z,4.30
2022-10-26T23:11:30.781Z,3.40
2022-10-26T23:14:00.231Z,4.45
2022-10-26T23:16:29.984Z,4.45
2022-10-26T23:18:58.975Z,3.80
2022-10-26T23:21:29.894Z,5.03
2022-10-26T23:23:58.577Z,3.35
2022-10-26T23:26:26.816Z,3.70
2022-10-26T23:28:55.065Z,3.20
2022-10-26T23:31:26.320Z,4.13
2022-10-26T23:33:55.697Z,3.85
2022-10-26T23:36:23.995Z,3.70
2022-10-26T23:38:53.655Z,3.35
2022-10-26T23:41:22.130Z,3.67
2022-10-26T23:43:50.394Z,4.13
2022-10-26T23:46:18.590Z,3.65
2022-10-26T23:48:46.708Z,4.28
2022-10-26T23:51:14.813Z,3.53
2022-10-26T23:53:42.942Z,3.63
2022-10-26T23:56:12.577Z,3.65
2022-10-26T23:58:40.750Z,3.60
